sensor_id;sensor_type;location;lat;lon;timestamp;pressure;altitude;pressure_sealevel;temperature;humidity
47080;BME280;33067;49.296;14.470;2023-05-20T00:00:29;97389.42;;;14.88;48.35
47080;BME280;33067;49.296;14.470;2023-05-20T00:02:55;97388.65;;;14.56;48.64
47080;BME280;33067;49.296;14.470;2023-05-20T00:05:20;97390.22;;;14.04;50.52
47080;BME280;33067;49.296;14.470;2023-05-20T00:07:46;97388.43;;;14.17;50.75
47080;BME280;33067;49.296;14.470;2023-05-20T00:10:10;97385.47;;;13.84;50.96
47080;BME280;33067;49.296;14.470;2023-05-20T00:12:37;97380.91;;;14.21;50.74
47080;BME280;33067;49.296;14.470;2023-05-20T00:15:04;97373.81;;;14.46;49.77
47080;BME280;33067;49.296;14.470;2023-05-20T00:17:27;97370.97;;;13.76;51.18
47080;BME280;33067;49.296;14.470;2023-05-20T00:19:52;97372.99;;;13.85;50.43
47080;BME280;33067;49.296;14.470;2023-05-20T00:22:19;97375.11;;;14.02;50.68
47080;BME280;33067;49.296;14.470;2023-05-20T00:24:44;97367.98;;;13.84;50.97
47080;BME280;33067;49.296;14.470;2023-05-20T00:27:09;97369.23;;;14.22;50.30
47080;BME280;33067;49.296;14.470;2023-05-20T00:29:36;97370.50;;;14.12;49.93
47080;BME280;33067;49.296;14.470;2023-05-20T00:32:00;97371.35;;;14.70;49.18
47080;BME280;33067;49.296;14.470;2023-05-20T00:34:27;97370.52;;;14.67;48.36
47080;BME280;33067;49.296;14.470;2023-05-20T00:36:52;97364.89;;;15.03;48.07
47080;BME280;33067;49.296;14.470;2023-05-20T00:39:17;97367.26;;;15.03;47.99
47080;BME280;33067;49.296;14.470;2023-05-20T00:41:43;97372.74;;;15.20;47.75
47080;BME280;33067;49.296;14.470;2023-05-20T00:44:08;97377.89;;;15.04;47.54
47080;BME280;33067;49.296;14.470;2023-05-20T00:46:32;97373.42;;;15.06;47.51
47080;BME280;33067;49.296;14.470;2023-05-20T00:48:58;97374.03;;;14.98;47.18
47080;BME280;33067;49.296;14.470;2023-05-20T00:51:23;97378.38;;;15.17;47.08
47080;BME280;33067;49.296;14.470;2023-05-20T00:53:50;97379.18;;;15.67;46.70
47080;BME280;33067;49.296;14.470;2023-05-20T00:56:14;97375.51;;;15.45;46.87
47080;BME280;33067;49.296;14.470;2023-05-20T00:58:39;97378.91;;;15.12;46.77
47080;BME280;33067;49.296;14.470;2023-05-20T01:01:05;97382.30;;;15.35;46.54
47080;BME280;33067;49.296;14.470;2023-05-20T01:03:32;97382.42;;;15.37;46.38
47080;BME280;33067;49.296;14.470;2023-05-20T01:05:56;97383.75;;;14.55;47.65
47080;BME280;33067;49.296;14.470;2023-05-20T01:08:24;97380.39;;;14.93;47.52
47080;BME280;33067;49.296;14.470;2023-05-20T01:10:52;97377.78;;;14.90;47.44
47080;BME280;33067;49.296;14.470;2023-05-20T01:13:16;97379.87;;;14.75;47.31
47080;BME280;33067;49.296;14.470;2023-05-20T01:15:39;97381.26;;;14.84;47.34
47080;BME280;33067;49.296;14.470;2023-05-20T01:18:08;97377.14;;;15.27;46.35
47080;BME280;33067;49.296;14.470;2023-05-20T01:20:30;97375.23;;;15.19;46.75
47080;BME280;33067;49.296;14.470;2023-05-20T01:22:56;97371.13;;;14.83;47.40
47080;BME280;33067;49.296;14.470;2023-05-20T01:25:21;97363.68;;;15.05;46.99
47080;BME280;33067;49.296;14.470;2023-05-20T01:27:46;97365.70;;;14.85;47.24
47080;BME280;33067;49.296;14.470;2023-05-20T01:30:13;97361.65;;;14.34;48.55
47080;BME280;33067;49.296;14.470;2023-05-20T01:32:38;97363.07;;;14.44;48.91
47080;BME280;33067;49.296;14.470;2023-05-20T01:35:04;97362.53;;;14.20;48.49
47080;BME280;33067;49.296;14.470;2023-05-20T01:37:27;97367.96;;;14.46;48.34
47080;BME280;33067;49.296;14.470;2023-05-20T01:39:54;97367.53;;;14.17;48.95
47080;BME280;33067;49.296;14.470;2023-05-20T01:42:19;97368.47;;;14.55;49.11
47080;BME280;33067;49.296;14.470;2023-05-20T01:44:43;97362.70;;;14.20;49.02
47080;BME280;33067;49.296;14.470;2023-05-20T01:47:08;97362.16;;;14.56;49.01
47080;BME280;33067;49.296;14.470;2023-05-20T01:49:35;97359.62;;;14.11;48.88
47080;BME280;33067;49.296;14.470;2023-05-20T01:52:00;97362.65;;;14.18;48.48
47080;BME280;33067;49.296;14.470;2023-05-20T01:54:26;97367.22;;;14.59;47.58
47080;BME280;33067;49.296;14.470;2023-05-20T01:56:51;97362.55;;;14.25;48.08
47080;BME280;33067;49.296;14.470;2023-05-20T01:59:17;97364.76;;;14.57;47.77
47080;BME280;33067;49.296;14.470;2023-05-20T02:01:44;97363.01;;;14.85;47.29
47080;BME280;33067;49.296;14.470;2023-05-20T02:04:10;97361.06;;;15.12;46.72
47080;BME280;33067;49.296;14.470;2023-05-20T02:06:33;97357.34;;;15.10;46.20
47080;BME280;33067;49.296;14.470;2023-05-20T02:09:01;97356.78;;;15.24;45.89
47080;BME280;33067;49.296;14.470;2023-05-20T02:13:00;97352.19;;;15.63;45.16
47080;BME280;33067;49.296;14.470;2023-05-20T02:15:26;97352.12;;;15.38;45.12
47080;BME280;33067;49.296;14.470;2023-05-20T02:17:51;97347.15;;;15.60;45.08
47080;BME280;33067;49.296;14.470;2023-05-20T02:20:16;97345.23;;;15.21;45.26
47080;BME280;33067;49.296;14.470;2023-05-20T02:22:42;97345.80;;;15.24;45.24
47080;BME280;33067;49.296;14.470;2023-05-20T02:25:09;97348.30;;;15.29;45.22
47080;BME280;33067;49.296;14.470;2023-05-20T02:27:33;97349.39;;;15.12;45.27
47080;BME280;33067;49.296;14.470;2023-05-20T02:30:00;97348.95;;;15.11;45.38
47080;BME280;33067;49.296;14.470;2023-05-20T02:32:24;97349.29;;;15.10;45.20
47080;BME280;33067;49.296;14.470;2023-05-20T02:34:50;97346.08;;;15.33;44.69
47080;BME280;33067;49.296;14.470;2023-05-20T02:37:16;97343.37;;;15.17;45.44
47080;BME280;33067;49.296;14.470;2023-05-20T02:39:41;97346.75;;;14.59;46.03
47080;BME280;33067;49.296;14.470;2023-05-20T02:42:06;97344.92;;;14.59;46.46
47080;BME280;33067;49.296;14.470;2023-05-20T02:44:32;97348.30;;;14.63;46.18
47080;BME280;33067;49.296;14.470;2023-05-20T02:46:58;97348.79;;;14.38;47.23
47080;BME280;33067;49.296;14.470;2023-05-20T02:49:23;97349.60;;;14.58;46.66
47080;BME280;33067;49.296;14.470;2023-05-20T02:51:48;97347.18;;;14.49;46.71
47080;BME280;33067;49.296;14.470;2023-05-20T02:54:14;97351.55;;;14.40;47.23
47080;BME280;33067;49.296;14.470;2023-05-20T02:56:40;97351.91;;;13.85;47.50
47080;BME280;33067;49.296;14.470;2023-05-20T02:59:05;97348.80;;;13.63;48.36
47080;BME280;33067;49.296;14.470;2023-05-20T03:01:31;97347.28;;;13.51;48.96
47080;BME280;33067;49.296;14.470;2023-05-20T03:03:56;97350.48;;;12.40;50.91
47080;BME280;33067;49.296;14.470;2023-05-20T03:06:22;97350.60;;;12.68;51.03
47080;BME280;33067;49.296;14.470;2023-05-20T03:08:47;97347.39;;;12.35;52.25
47080;BME280;33067;49.296;14.470;2023-05-20T03:11:12;97351.60;;;12.39;51.65
47080;BME280;33067;49.296;14.470;2023-05-20T03:13:38;97360.54;;;12.30;52.42
47080;BME280;33067;49.296;14.470;2023-05-20T03:16:03;97357.27;;;12.09;52.38
47080;BME280;33067;49.296;14.470;2023-05-20T03:18:29;97357.63;;;12.86;51.30
47080;BME280;33067;49.296;14.470;2023-05-20T03:20:54;97355.41;;;12.69;51.02
47080;BME280;33067;49.296;14.470;2023-05-20T03:23:20;97354.41;;;12.94;50.42
47080;BME280;33067;49.296;14.470;2023-05-20T03:25:45;97355.29;;;13.78;48.83
47080;BME280;33067;49.296;14.470;2023-05-20T03:28:11;97353.25;;;13.46;48.81
47080;BME280;33067;49.296;14.470;2023-05-20T03:30:36;97357.87;;;13.48;48.65
47080;BME280;33067;49.296;14.470;2023-05-20T03:33:01;97360.86;;;13.70;48.26
47080;BME280;33067;49.296;14.470;2023-05-20T03:35:27;97362.80;;;13.79;47.96
47080;BME280;33067;49.296;14.470;2023-05-20T03:37:52;97360.70;;;13.59;48.75
47080;BME280;33067;49.296;14.470;2023-05-20T03:40:18;97356.38;;;13.37;49.36
47080;BME280;33067;49.296;14.470;2023-05-20T03:42:43;97352.92;;;13.83;48.02
47080;BME280;33067;49.296;14.470;2023-05-20T03:45:09;97353.84;;;13.32;48.70
47080;BME280;33067;49.296;14.470;2023-05-20T03:47:34;97359.46;;;14.13;47.87
47080;BME280;33067;49.296;14.470;2023-05-20T03:49:59;97365.15;;;14.06;47.82
47080;BME280;33067;49.296;14.470;2023-05-20T03:52:25;97366.48;;;14.37;47.27
47080;BME280;33067;49.296;14.470;2023-05-20T03:54:52;97364.77;;;14.33;46.90
47080;BME280;33067;49.296;14.470;2023-05-20T03:57:16;97365.70;;;14.71;46.53
47080;BME280;33067;49.296;14.470;2023-05-20T03:59:41;97364.88;;;14.81;46.05
47080;BME280;33067;49.296;14.470;2023-05-20T04:02:07;97362.93;;;15.05;45.48
47080;BME280;33067;49.296;14.470;2023-05-20T04:04:32;97365.92;;;14.94;45.27
47080;BME280;33067;49.296;14.470;2023-05-20T04:06:57;97360.46;;;15.09;45.27
47080;BME280;33067;49.296;14.470;2023-05-20T04:09:23;97357.27;;;14.81;45.27
47080;BME280;33067;49.296;14.470;2023-05-20T04:11:48;97359.59;;;15.03;45.15
47080;BME280;33067;49.296;14.470;2023-05-20T04:14:14;97361.36;;;15.23;44.73
47080;BME280;33067;49.296;14.470;2023-05-20T04:16:39;97358.96;;;15.28;44.39
47080;BME280;33067;49.296;14.470;2023-05-20T04:19:05;97357.64;;;15.94;44.06
47080;BME280;33067;49.296;14.470;2023-05-20T04:21:31;97360.26;;;15.79;43.85
47080;BME280;33067;49.296;14.470;2023-05-20T04:23:57;97359.28;;;15.84;43.70
47080;BME280;33067;49.296;14.470;2023-05-20T04:26:21;97360.04;;;15.74;43.61
47080;BME280;33067;49.296;14.470;2023-05-20T04:28:47;97364.10;;;15.82;43.20
47080;BME280;33067;49.296;14.470;2023-05-20T04:31:13;97361.89;;;15.75;43.94
47080;BME280;33067;49.296;14.470;2023-05-20T04:33:38;97366.46;;;15.50;43.78
47080;BME280;33067;49.296;14.470;2023-05-20T04:36:06;97359.34;;;16.19;43.25
47080;BME280;33067;49.296;14.470;2023-05-20T04:38:29;97352.96;;;15.90;43.64
47080;BME280;33067;49.296;14.470;2023-05-20T04:40:54;97363.11;;;16.16;43.28
47080;BME280;33067;49.296;14.470;2023-05-20T04:43:20;97363.03;;;15.85;43.51
47080;BME280;33067;49.296;14.470;2023-05-20T04:45:45;97364.70;;;15.92;43.44
47080;BME280;33067;49.296;14.470;2023-05-20T04:48:11;97361.05;;;15.93;43.29
47080;BME280;33067;49.296;14.470;2023-05-20T04:50:37;97361.28;;;15.94;43.10
47080;BME280;33067;49.296;14.470;2023-05-20T04:53:02;97358.52;;;16.31;42.66
47080;BME280;33067;49.296;14.470;2023-05-20T04:55:27;97357.69;;;16.55;42.36
47080;BME280;33067;49.296;14.470;2023-05-20T04:57:53;97355.99;;;16.84;42.22
47080;BME280;33067;49.296;14.470;2023-05-20T05:00:19;97356.48;;;17.03;41.70
47080;BME280;33067;49.296;14.470;2023-05-20T05:02:44;97357.21;;;17.05;41.74
47080;BME280;33067;49.296;14.470;2023-05-20T05:05:10;97356.24;;;16.01;40.52
47080;BME280;33067;49.296;14.470;2023-05-20T05:07:35;97361.73;;;17.19;40.48
47080;BME280;33067;49.296;14.470;2023-05-20T05:10:00;97361.44;;;17.00;41.61
47080;BME280;33067;49.296;14.470;2023-05-20T05:12:25;97358.19;;;17.43;40.83
47080;BME280;33067;49.296;14.470;2023-05-20T05:14:51;97359.72;;;17.31;40.87
47080;BME280;33067;49.296;14.470;2023-05-20T05:17:16;97360.35;;;17.01;41.47
47080;BME280;33067;49.296;14.470;2023-05-20T05:19:42;97360.94;;;17.18;40.87
47080;BME280;33067;49.296;14.470;2023-05-20T05:22:08;97358.05;;;16.65;41.51
47080;BME280;33067;49.296;14.470;2023-05-20T05:24:33;97351.74;;;16.94;41.78
47080;BME280;33067;49.296;14.470;2023-05-20T05:26:58;97351.61;;;17.36;41.43
47080;BME280;33067;49.296;14.470;2023-05-20T05:29:24;97357.66;;;17.14;41.03
47080;BME280;33067;49.296;14.470;2023-05-20T05:31:49;97365.84;;;16.97;41.95
47080;BME280;33067;49.296;14.470;2023-05-20T05:34:15;97360.47;;;17.62;40.35
47080;BME280;33067;49.296;14.470;2023-05-20T05:36:40;97356.88;;;17.56;40.71
47080;BME280;33067;49.296;14.470;2023-05-20T05:39:05;97353.44;;;17.59;40.56
47080;BME280;33067;49.296;14.470;2023-05-20T05:41:31;97349.19;;;17.85;40.46
47080;BME280;33067;49.296;14.470;2023-05-20T05:43:57;97351.56;;;17.93;40.41
47080;BME280;33067;49.296;14.470;2023-05-20T05:46:22;97353.27;;;18.15;40.47
47080;BME280;33067;49.296;14.470;2023-05-20T05:48:48;97357.53;;;18.32;39.72
47080;BME280;33067;49.296;14.470;2023-05-20T05:51:13;97360.66;;;18.42;39.29
47080;BME280;33067;49.296;14.470;2023-05-20T05:53:39;97361.02;;;18.24;38.50
47080;BME280;33067;49.296;14.470;2023-05-20T05:56:04;97357.50;;;18.07;39.29
47080;BME280;33067;49.296;14.470;2023-05-20T05:58:29;97355.27;;;18.56;39.34
47080;BME280;33067;49.296;14.470;2023-05-20T06:00:54;97360.23;;;17.83;39.06
47080;BME280;33067;49.296;14.470;2023-05-20T06:03:19;97355.50;;;17.49;39.83
47080;BME280;33067;49.296;14.470;2023-05-20T06:05:45;97355.31;;;17.17;41.20
47080;BME280;33067;49.296;14.470;2023-05-20T06:08:10;97356.45;;;17.10;41.03
47080;BME280;33067;49.296;14.470;2023-05-20T06:10:35;97352.92;;;17.86;40.55
47080;BME280;33067;49.296;14.470;2023-05-20T06:13:01;97353.89;;;17.12;40.48
47080;BME280;33067;49.296;14.470;2023-05-20T06:15:26;97365.66;;;17.92;40.11
47080;BME280;33067;49.296;14.470;2023-05-20T06:17:52;97361.41;;;18.27;39.50
47080;BME280;33067;49.296;14.470;2023-05-20T06:20:17;97352.37;;;18.70;38.72
47080;BME280;33067;49.296;14.470;2023-05-20T06:22:42;97349.29;;;19.24;37.69
47080;BME280;33067;49.296;14.470;2023-05-20T06:25:09;97351.52;;;18.91;38.24
47080;BME280;33067;49.296;14.470;2023-05-20T06:27:33;97354.99;;;18.37;38.77
47080;BME280;33067;49.296;14.470;2023-05-20T06:29:58;97350.10;;;18.78;38.80
47080;BME280;33067;49.296;14.470;2023-05-20T06:32:24;97347.42;;;18.40;39.13
47080;BME280;33067;49.296;14.470;2023-05-20T06:34:49;97345.46;;;17.77;40.22
47080;BME280;33067;49.296;14.470;2023-05-20T06:37:15;97348.87;;;17.68;39.97
47080;BME280;33067;49.296;14.470;2023-05-20T06:39:41;97345.59;;;17.85;40.16
47080;BME280;33067;49.296;14.470;2023-05-20T06:42:06;97345.60;;;18.50;39.51
47080;BME280;33067;49.296;14.470;2023-05-20T06:44:31;97349.62;;;18.71;39.19
47080;BME280;33067;49.296;14.470;2023-05-20T06:46:56;97341.13;;;18.99;38.52
47080;BME280;33067;49.296;14.470;2023-05-20T06:49:21;97345.96;;;19.38;38.12
47080;BME280;33067;49.296;14.470;2023-05-20T06:51:47;97344.41;;;19.23;38.04
47080;BME280;33067;49.296;14.470;2023-05-20T06:54:13;97341.86;;;19.16;37.88
47080;BME280;33067;49.296;14.470;2023-05-20T06:56:38;97338.26;;;19.03;38.39
47080;BME280;33067;49.296;14.470;2023-05-20T06:59:04;97335.49;;;18.71;39.01
47080;BME280;33067;49.296;14.470;2023-05-20T07:01:29;97336.63;;;18.54;39.10
47080;BME280;33067;49.296;14.470;2023-05-20T07:03:55;97334.35;;;19.24;38.51
47080;BME280;33067;49.296;14.470;2023-05-20T07:06:20;97330.10;;;19.31;38.29
47080;BME280;33067;49.296;14.470;2023-05-20T07:08:45;97325.08;;;19.07;38.76
47080;BME280;33067;49.296;14.470;2023-05-20T07:11:11;97319.93;;;19.33;38.60
47080;BME280;33067;49.296;14.470;2023-05-20T07:13:37;97318.24;;;19.30;39.02
47080;BME280;33067;49.296;14.470;2023-05-20T07:16:02;97319.69;;;19.68;38.84
47080;BME280;33067;49.296;14.470;2023-05-20T07:18:28;97315.94;;;19.40;38.75
47080;BME280;33067;49.296;14.470;2023-05-20T07:20:54;97308.98;;;19.51;38.53
47080;BME280;33067;49.296;14.470;2023-05-20T07:23:18;97309.10;;;19.82;39.62
47080;BME280;33067;49.296;14.470;2023-05-20T07:25:44;97306.47;;;19.99;37.82
47080;BME280;33067;49.296;14.470;2023-05-20T07:28:09;97303.13;;;20.24;37.96
47080;BME280;33067;49.296;14.470;2023-05-20T07:30:34;97296.62;;;20.55;38.14
47080;BME280;33067;49.296;14.470;2023-05-20T07:33:00;97294.52;;;20.31;37.53
47080;BME280;33067;49.296;14.470;2023-05-20T07:35:25;97293.00;;;20.60;38.32
47080;BME280;33067;49.296;14.470;2023-05-20T07:37:51;97286.22;;;21.27;36.87
47080;BME280;33067;49.296;14.470;2023-05-20T07:40:16;97282.07;;;20.89;37.10
47080;BME280;33067;49.296;14.470;2023-05-20T07:42:41;97281.31;;;21.17;36.55
47080;BME280;33067;49.296;14.470;2023-05-20T07:45:08;97283.03;;;20.60;36.98
47080;BME280;33067;49.296;14.470;2023-05-20T07:47:33;97279.91;;;21.39;36.05
47080;BME280;33067;49.296;14.470;2023-05-20T07:49:58;97275.40;;;21.65;35.99
47080;BME280;33067;49.296;14.470;2023-05-20T07:52:24;97280.75;;;21.81;35.49
47080;BME280;33067;49.296;14.470;2023-05-20T07:54:49;97278.24;;;21.23;36.68
47080;BME280;33067;49.296;14.470;2023-05-20T07:57:15;97276.91;;;21.90;36.42
47080;BME280;33067;49.296;14.470;2023-05-20T07:59:41;97277.40;;;21.85;36.07
47080;BME280;33067;49.296;14.470;2023-05-20T08:02:07;97284.60;;;21.59;35.97
47080;BME280;33067;49.296;14.470;2023-05-20T08:04:32;97283.65;;;22.42;36.26
47080;BME280;33067;49.296;14.470;2023-05-20T08:06:58;97286.42;;;21.73;35.84
47080;BME280;33067;49.296;14.470;2023-05-20T08:09:23;97280.74;;;22.77;34.93
47080;BME280;33067;49.296;14.470;2023-05-20T08:11:49;97285.78;;;22.04;35.57
47080;BME280;33067;49.296;14.470;2023-05-20T08:14:14;97285.15;;;21.62;35.65
47080;BME280;33067;49.296;14.470;2023-05-20T08:16:40;97284.69;;;21.39;35.60
47080;BME280;33067;49.296;14.470;2023-05-20T08:19:05;97278.50;;;21.33;36.49
47080;BME280;33067;49.296;14.470;2023-05-20T08:21:30;97274.96;;;21.16;36.32
47080;BME280;33067;49.296;14.470;2023-05-20T08:23:56;97284.42;;;21.23;36.39
47080;BME280;33067;49.296;14.470;2023-05-20T08:26:21;97272.61;;;21.15;36.90
47080;BME280;33067;49.296;14.470;2023-05-20T08:28:47;97268.36;;;21.33;36.60
47080;BME280;33067;49.296;14.470;2023-05-20T08:31:12;97279.47;;;20.15;37.54
47080;BME280;33067;49.296;14.470;2023-05-20T08:33:37;97272.71;;;20.11;37.99
47080;BME280;33067;49.296;14.470;2023-05-20T08:36:03;97276.89;;;17.70;39.32
47080;BME280;33067;49.296;14.470;2023-05-20T08:38:28;97272.23;;;20.28;38.26
47080;BME280;33067;49.296;14.470;2023-05-20T08:40:55;97271.65;;;20.79;38.00
47080;BME280;33067;49.296;14.470;2023-05-20T08:43:19;97287.70;;;20.24;37.88
47080;BME280;33067;49.296;14.470;2023-05-20T08:45:45;97275.81;;;20.37;38.52
47080;BME280;33067;49.296;14.470;2023-05-20T08:48:10;97273.94;;;20.23;38.60
47080;BME280;33067;49.296;14.470;2023-05-20T08:50:36;97276.27;;;20.50;38.06
47080;BME280;33067;49.296;14.470;2023-05-20T08:53:01;97267.50;;;20.06;38.39
47080;BME280;33067;49.296;14.470;2023-05-20T08:55:32;97264.83;;;20.17;38.62
47080;BME280;33067;49.296;14.470;2023-05-20T08:57:52;97266.31;;;21.26;37.74
47080;BME280;33067;49.296;14.470;2023-05-20T09:00:18;97269.61;;;20.42;37.79
47080;BME280;33067;49.296;14.470;2023-05-20T09:02:44;97277.30;;;19.87;38.71
47080;BME280;33067;49.296;14.470;2023-05-20T09:05:09;97271.08;;;21.40;37.24
47080;BME280;33067;49.296;14.470;2023-05-20T09:07:33;97272.68;;;21.67;36.59
47080;BME280;33067;49.296;14.470;2023-05-20T09:09:59;97275.99;;;21.36;36.84
47080;BME280;33067;49.296;14.470;2023-05-20T09:12:24;97279.32;;;21.31;37.25
47080;BME280;33067;49.296;14.470;2023-05-20T09:14:49;97278.94;;;21.40;36.60
47080;BME280;33067;49.296;14.470;2023-05-20T09:17:15;97268.67;;;21.38;37.12
47080;BME280;33067;49.296;14.470;2023-05-20T09:19:40;97268.02;;;21.93;36.47
47080;BME280;33067;49.296;14.470;2023-05-20T09:22:06;97265.95;;;22.91;35.46
47080;BME280;33067;49.296;14.470;2023-05-20T09:24:31;97254.83;;;22.92;35.40
47080;BME280;33067;49.296;14.470;2023-05-20T09:26:56;97260.24;;;22.16;35.35
47080;BME280;33067;49.296;14.470;2023-05-20T09:29:22;97249.30;;;22.36;35.73
47080;BME280;33067;49.296;14.470;2023-05-20T09:31:47;97269.76;;;21.93;35.49
47080;BME280;33067;49.296;14.470;2023-05-20T09:34:12;97256.50;;;20.78;37.74
47080;BME280;33067;49.296;14.470;2023-05-20T09:36:39;97253.17;;;21.40;36.64
47080;BME280;33067;49.296;14.470;2023-05-20T09:39:03;97243.23;;;20.98;36.82
47080;BME280;33067;49.296;14.470;2023-05-20T09:41:35;97257.85;;;20.12;38.84
47080;BME280;33067;49.296;14.470;2023-05-20T09:43:54;97255.16;;;20.43;38.77
47080;BME280;33067;49.296;14.470;2023-05-20T09:46:20;97257.85;;;20.38;39.23
47080;BME280;33067;49.296;14.470;2023-05-20T09:48:46;97251.25;;;19.68;39.82
47080;BME280;33067;49.296;14.470;2023-05-20T09:51:12;97259.87;;;20.12;39.55
47080;BME280;33067;49.296;14.470;2023-05-20T09:53:36;97243.08;;;21.41;38.08
47080;BME280;33067;49.296;14.470;2023-05-20T09:56:02;97235.88;;;22.17;37.08
47080;BME280;33067;49.296;14.470;2023-05-20T09:58:28;97233.55;;;21.69;36.79
47080;BME280;33067;49.296;14.470;2023-05-20T10:00:53;97229.78;;;22.18;36.05
47080;BME280;33067;49.296;14.470;2023-05-20T10:03:21;97221.99;;;22.93;35.55
47080;BME280;33067;49.296;14.470;2023-05-20T10:05:50;97226.06;;;23.00;35.25
47080;BME280;33067;49.296;14.470;2023-05-20T10:08:22;97225.12;;;22.55;35.68
47080;BME280;33067;49.296;14.470;2023-05-20T10:10:41;97227.59;;;22.23;35.94
47080;BME280;33067;49.296;14.470;2023-05-20T10:13:10;97224.55;;;22.27;35.92
47080;BME280;33067;49.296;14.470;2023-05-20T10:15:32;97222.50;;;21.82;36.40
47080;BME280;33067;49.296;14.470;2023-05-20T10:18:03;97212.92;;;22.10;36.42
47080;BME280;33067;49.296;14.470;2023-05-20T10:20:18;97215.49;;;22.28;36.39
47080;BME280;33067;49.296;14.470;2023-05-20T10:22:43;97214.96;;;22.45;36.39
47080;BME280;33067;49.296;14.470;2023-05-20T10:25:11;97199.00;;;22.74;35.64
47080;BME280;33067;49.296;14.470;2023-05-20T10:27:43;97201.37;;;23.22;35.03
47080;BME280;33067;49.296;14.470;2023-05-20T10:30:00;97207.30;;;23.49;34.82
47080;BME280;33067;49.296;14.470;2023-05-20T10:32:26;97196.33;;;22.74;34.81
47080;BME280;33067;49.296;14.470;2023-05-20T10:34:51;97200.05;;;21.56;35.27
47080;BME280;33067;49.296;14.470;2023-05-20T10:37:23;97205.01;;;21.66;35.79
47080;BME280;33067;49.296;14.470;2023-05-20T10:39:42;97202.79;;;21.18;37.02
47080;BME280;33067;49.296;14.470;2023-05-20T10:42:08;97202.73;;;20.97;37.05
47080;BME280;33067;49.296;14.470;2023-05-20T10:44:40;97196.93;;;20.69;37.46
47080;BME280;33067;49.296;14.470;2023-05-20T10:47:02;97201.04;;;20.53;37.98
47080;BME280;33067;49.296;14.470;2023-05-20T10:49:32;97200.02;;;20.82;37.26
47080;BME280;33067;49.296;14.470;2023-05-20T10:51:50;97200.12;;;21.56;37.38
47080;BME280;33067;49.296;14.470;2023-05-20T10:54:16;97191.28;;;21.49;37.32
47080;BME280;33067;49.296;14.470;2023-05-20T10:56:50;97185.53;;;21.99;37.03
47080;BME280;33067;49.296;14.470;2023-05-20T10:59:06;97183.49;;;21.80;37.78
47080;BME280;33067;49.296;14.470;2023-05-20T11:01:32;97188.94;;;21.75;35.89
47080;BME280;33067;49.296;14.470;2023-05-20T11:03:58;97182.40;;;22.05;35.62
47080;BME280;33067;49.296;14.470;2023-05-20T11:06:27;97189.35;;;22.17;35.05
47080;BME280;33067;49.296;14.470;2023-05-20T11:08:49;97186.83;;;21.49;35.53
47080;BME280;33067;49.296;14.470;2023-05-20T11:11:15;97179.67;;;22.13;35.08
47080;BME280;33067;49.296;14.470;2023-05-20T11:13:40;97186.72;;;22.28;35.14
47080;BME280;33067;49.296;14.470;2023-05-20T11:16:05;97192.68;;;22.16;34.91
47080;BME280;33067;49.296;14.470;2023-05-20T11:18:31;97181.57;;;21.73;35.76
47080;BME280;33067;49.296;14.470;2023-05-20T11:20:57;97170.29;;;22.02;35.69
47080;BME280;33067;49.296;14.470;2023-05-20T11:23:22;97178.50;;;21.83;36.14
47080;BME280;33067;49.296;14.470;2023-05-20T11:25:48;97172.99;;;21.71;36.37
47080;BME280;33067;49.296;14.470;2023-05-20T11:28:13;97176.57;;;21.77;36.76
47080;BME280;33067;49.296;14.470;2023-05-20T11:30:39;97163.09;;;21.96;36.49
47080;BME280;33067;49.296;14.470;2023-05-20T11:33:04;97159.09;;;23.12;35.08
47080;BME280;33067;49.296;14.470;2023-05-20T11:35:30;97156.94;;;22.79;35.19
47080;BME280;33067;49.296;14.470;2023-05-20T11:37:56;97161.42;;;21.57;36.20
47080;BME280;33067;49.296;14.470;2023-05-20T11:40:23;97166.38;;;22.47;35.78
47080;BME280;33067;49.296;14.470;2023-05-20T11:42:45;97148.78;;;21.35;37.11
47080;BME280;33067;49.296;14.470;2023-05-20T11:45:12;97154.27;;;21.76;37.57
47080;BME280;33067;49.296;14.470;2023-05-20T11:47:36;97160.65;;;21.80;37.50
47080;BME280;33067;49.296;14.470;2023-05-20T11:50:02;97167.23;;;20.83;37.73
47080;BME280;33067;49.296;14.470;2023-05-20T11:52:28;97177.28;;;21.44;37.45
47080;BME280;33067;49.296;14.470;2023-05-20T11:54:53;97156.38;;;21.91;36.64
47080;BME280;33067;49.296;14.470;2023-05-20T11:57:19;97163.41;;;22.22;36.80
47080;BME280;33067;49.296;14.470;2023-05-20T11:59:44;97167.10;;;21.07;38.11
47080;BME280;33067;49.296;14.470;2023-05-20T12:02:10;97157.95;;;21.01;38.53
47080;BME280;33067;49.296;14.470;2023-05-20T12:04:35;97153.24;;;22.38;37.03
47080;BME280;33067;49.296;14.470;2023-05-20T12:07:01;97149.51;;;22.61;36.71
47080;BME280;33067;49.296;14.470;2023-05-20T12:09:27;97143.94;;;22.83;36.05
47080;BME280;33067;49.296;14.470;2023-05-20T12:11:53;97141.29;;;22.94;33.66
47080;BME280;33067;49.296;14.470;2023-05-20T12:14:18;97139.53;;;23.39;32.68
47080;BME280;33067;49.296;14.470;2023-05-20T12:16:44;97150.86;;;23.81;32.62
47080;BME280;33067;49.296;14.470;2023-05-20T12:19:10;97158.16;;;23.10;33.82
47080;BME280;33067;49.296;14.470;2023-05-20T12:21:35;97170.34;;;21.93;35.32
47080;BME280;33067;49.296;14.470;2023-05-20T12:24:01;97156.29;;;21.28;35.35
47080;BME280;33067;49.296;14.470;2023-05-20T12:26:28;97151.37;;;22.14;34.90
47080;BME280;33067;49.296;14.470;2023-05-20T12:28:52;97147.15;;;22.09;34.99
47080;BME280;33067;49.296;14.470;2023-05-20T12:31:17;97143.61;;;22.69;34.02
47080;BME280;33067;49.296;14.470;2023-05-20T12:33:43;97138.35;;;22.40;34.05
47080;BME280;33067;49.296;14.470;2023-05-20T12:36:09;97135.55;;;22.78;33.43
47080;BME280;33067;49.296;14.470;2023-05-20T12:38:34;97132.68;;;23.28;32.61
47080;BME280;33067;49.296;14.470;2023-05-20T12:40:59;97131.92;;;23.60;33.47